Time;durP1;ratioP1;P1;durP2;ratioP2;P2;SDS_P1;SDS_P2;PMS_P1;PMS_P2;Temp;Humidity;BMP_temperature;BMP_pressure;BME280_temperature;BME280_humidity;BME280_pressure;Samples;Min_cycle;Max_cycle;Signal;HPM_P1;HPM_P2
2023/06/11 00:04:25;;;;;;;5.68;2.45;;;20.30;1.00;;;;;;20819405;28;20087;-41
2023/06/11 00:14:46;;;;;;;4.60;2.53;;;20.40;1.00;;;;;;20828690;28;20484;-41
2023/06/11 00:25:09;;;;;;;4.72;2.92;;;20.40;1.00;;;;;;20828017;28;20120;-42
2023/06/11 00:35:31;;;;;;;7.80;3.10;;;20.50;1.00;;;;;;20818539;28;20063;-41
2023/06/11 00:45:54;;;;;;;4.90;3.17;;;20.50;1.00;;;;;;20824575;28;20075;-41
2023/06/11 00:56:17;;;;;;;5.47;3.50;;;20.40;1.00;;;;;;20815022;28;20107;-42
2023/06/11 01:06:46;;;;;;;5.25;3.50;;;20.30;1.00;;;;;;20817929;28;20068;-41
2023/06/11 01:17:21;;;;;;;7.10;3.42;;;20.20;1.00;;;;;;20816611;28;20116;-42
2023/06/11 01:28:04;;;;;;;6.10;3.67;;;20.00;1.00;;;;;;20805130;28;20119;-41
2023/06/11 01:38:30;;;;;;;5.60;3.35;;;20.00;1.00;;;;;;20821555;28;20033;-41
2023/06/11 01:48:51;;;;;;;6.97;4.03;;;19.90;1.00;;;;;;20811717;28;20078;-42
2023/06/11 01:59:13;;;;;;;7.65;4.13;;;19.90;1.00;;;;;;20816439;28;20033;-42
2023/06/11 02:09:34;;;;;;;5.72;3.72;;;19.80;1.00;;;;;;20820141;28;20559;-41
2023/06/11 02:19:55;;;;;;;5.35;3.75;;;19.80;1.00;;;;;;20820478;28;20175;-42
2023/06/11 02:41:02;;;;;;;6.53;4.13;;;19.60;1.00;;;;;;21648980;22;20076;-81
2023/06/11 02:51:23;;;;;;;6.80;4.70;;;19.40;1.00;;;;;;20949922;28;20165;-83
2023/06/11 03:01:45;;;;;;;6.15;4.57;;;19.40;1.00;;;;;;20931391;28;20045;-81
2023/06/11 03:12:06;;;;;;;6.25;4.63;;;19.30;1.00;;;;;;20926498;28;20037;-81
2023/06/11 03:22:28;;;;;;;7.35;4.68;;;19.10;1.00;;;;;;20931299;28;20032;-81
2023/06/11 03:32:49;;;;;;;7.85;4.53;;;19.00;1.00;;;;;;20907846;28;20044;-81
2023/06/11 03:43:24;;;;;;;7.22;5.07;;;18.90;1.00;;;;;;20807203;28;20684;-42
2023/06/11 03:53:46;;;;;;;10.10;4.45;;;18.90;1.00;;;;;;20733997;28;20044;-42
2023/06/11 04:04:07;;;;;;;7.30;5.13;;;18.80;1.00;;;;;;20732289;28;20034;-42
2023/06/11 04:14:28;;;;;;;8.05;4.93;;;18.90;1.00;;;;;;20734301;28;20042;-42
2023/06/11 04:24:50;;;;;;;10.32;5.32;;;18.90;1.00;;;;;;20738293;28;20038;-42
2023/06/11 04:35:11;;;;;;;10.73;5.07;;;18.90;1.00;;;;;;20734444;28;20077;-42
2023/06/11 04:45:33;;;;;;;8.32;5.72;;;19.00;1.00;;;;;;20733120;28;20481;-42
2023/06/11 04:55:57;;;;;;;7.68;5.50;;;19.20;1.00;;;;;;20677838;28;20046;-42
2023/06/11 05:06:21;;;;;;;8.77;5.60;;;19.40;1.00;;;;;;20676788;28;20610;-42
2023/06/11 05:16:42;;;;;;;7.20;4.85;;;19.80;1.00;;;;;;20669765;28;20064;-42
2023/06/11 05:27:04;;;;;;;6.65;4.78;;;20.10;1.00;;;;;;20678076;28;20044;-42
2023/06/11 05:37:25;;;;;;;7.32;5.70;;;20.60;1.00;;;;;;20667616;28;20318;-42
2023/06/11 05:47:46;;;;;;;7.72;5.15;;;21.00;1.00;;;;;;20667545;28;20050;-42
2023/06/11 05:58:08;;;;;;;9.60;5.22;;;21.40;1.00;;;;;;20673136;28;20630;-42
2023/06/11 06:08:30;;;;;;;6.53;5.05;;;21.80;1.00;;;;;;20670360;28;20049;-42
2023/06/11 06:18:51;;;;;;;9.52;4.50;;;21.90;1.00;;;;;;20665908;28;20273;-42
2023/06/11 06:29:14;;;;;;;6.82;4.32;;;22.20;1.00;;;;;;20676799;28;20064;-42
2023/06/11 06:39:35;;;;;;;7.45;5.45;;;22.40;1.00;;;;;;20669557;28;20062;-42
2023/06/11 06:49:56;;;;;;;9.73;5.65;;;22.80;1.00;;;;;;20670157;28;20052;-42
2023/06/11 07:00:18;;;;;;;6.45;4.30;;;23.30;1.00;;;;;;20670956;28;20529;-42
2023/06/11 07:10:48;;;;;;;7.88;4.90;;;23.30;1.00;;;;;;20646661;28;20057;-42
2023/06/11 07:21:10;;;;;;;7.18;4.90;;;23.50;1.00;;;;;;20655124;28;20057;-42
2023/06/11 07:31:31;;;;;;;7.63;5.05;;;24.10;1.00;;;;;;20652683;28;20043;-42
2023/06/11 07:41:52;;;;;;;9.10;5.38;;;24.20;1.00;;;;;;20655290;28;20050;-42
2023/06/11 07:52:14;;;;;;;6.85;5.10;;;24.50;1.00;;;;;;20658442;28;20042;-42
2023/06/11 08:02:35;;;;;;;9.98;5.55;;;24.70;1.00;;;;;;20666241;28;20037;-42
2023/06/11 08:12:56;;;;;;;6.80;4.43;;;24.90;1.00;;;;;;20648103;28;20035;-42
2023/06/11 08:23:18;;;;;;;9.55;4.85;;;25.00;1.00;;;;;;20672148;28;20029;-42
2023/06/11 08:33:39;;;;;;;7.43;5.22;;;25.40;1.00;;;;;;20671766;28;20044;-42
2023/06/11 08:44:00;;;;;;;6.90;4.93;;;25.60;1.00;;;;;;20675075;28;20045;-42
2023/06/11 08:54:23;;;;;;;6.05;4.70;;;26.00;1.00;;;;;;20679162;28;20482;-43
2023/06/11 09:04:44;;;;;;;6.70;5.55;;;26.50;1.00;;;;;;20664404;28;20050;-43
2023/06/11 09:15:06;;;;;;;6.45;4.90;;;26.80;1.00;;;;;;20677394;28;20041;-43
2023/06/11 09:25:30;;;;;;;6.93;4.97;;;27.20;1.00;;;;;;20670916;28;20041;-42
2023/06/11 09:35:52;;;;;;;5.05;4.28;;;27.60;1.00;;;;;;20657721;28;20054;-43
2023/06/11 09:46:13;;;;;;;5.97;4.25;;;27.90;1.00;;;;;;20672566;28;20160;-43
2023/06/11 09:56:35;;;;;;;6.38;4.53;;;28.30;1.00;;;;;;20672116;28;20026;-43
2023/06/11 10:06:57;;;;;;;6.03;3.95;;;28.80;1.00;;;;;;20677110;28;20037;-43
2023/06/11 10:17:21;;;;;;;5.95;4.07;;;29.00;1.00;;;;;;20660380;28;20035;-43
2023/06/11 10:27:43;;;;;;;4.80;3.70;;;29.30;1.00;;;;;;20659865;28;20050;-43
2023/06/11 10:38:07;;;;;;;9.35;4.55;;;29.60;1.00;;;;;;20654135;28;20061;-43
2023/06/11 10:48:30;;;;;;;5.78;3.78;;;29.70;1.00;;;;;;20641572;28;20041;-43
2023/06/11 10:58:53;;;;;;;4.43;3.05;;;29.90;1.00;;;;;;20668221;28;20255;-43
2023/06/11 11:09:23;;;;;;;5.60;3.88;;;30.20;1.00;;;;;;20671657;28;20048;-43
2023/06/11 11:19:46;;;;;;;7.75;3.75;;;30.40;1.00;;;;;;20663075;28;20042;-43
2023/06/11 11:30:08;;;;;;;6.68;3.80;;;30.60;1.00;;;;;;20666348;28;20033;-43
2023/06/11 11:40:29;;;;;;;5.68;3.60;;;30.80;1.00;;;;;;20670109;28;20050;-43
2023/06/11 11:51:02;;;;;;;6.07;3.67;;;31.10;1.00;;;;;;20665259;28;20037;-43
2023/06/11 12:01:26;;;;;;;5.20;3.40;;;31.40;1.00;;;;;;20660929;28;20137;-42
2023/06/11 12:11:47;;;;;;;4.13;3.40;;;31.30;1.00;;;;;;20684071;28;20041;-43
2023/06/11 12:22:09;;;;;;;4.97;3.42;;;31.40;1.00;;;;;;20682189;28;20045;-43
2023/06/11 12:32:30;;;;;;;4.15;3.42;;;31.60;1.00;;;;;;20674525;28;20076;-43
2023/06/11 12:42:56;;;;;;;6.65;3.30;;;32.10;1.00;;;;;;20678654;28;20500;-43
2023/06/11 12:53:17;;;;;;;4.57;3.30;;;31.90;1.00;;;;;;20669869;28;20068;-43
2023/06/11 13:03:39;;;;;;;5.75;3.00;;;31.50;1.00;;;;;;20657897;28;20046;-43
2023/06/11 13:14:00;;;;;;;3.10;2.45;;;31.40;1.00;;;;;;20668538;28;20054;-43
2023/06/11 13:24:24;;;;;;;3.05;2.40;;;32.00;1.00;;;;;;20663956;28;20044;-43
2023/06/11 13:34:45;;;;;;;3.35;2.47;;;32.20;1.00;;;;;;20652247;28;20042;-43
2023/06/11 13:45:06;;;;;;;5.65;2.55;;;32.30;1.00;;;;;;20668720;28;20038;-43
2023/06/11 13:55:28;;;;;;;3.20;2.20;;;32.30;1.00;;;;;;20672537;28;20046;-43
2023/06/11 14:05:49;;;;;;;3.65;2.10;;;32.10;1.00;;;;;;20659311;28;20618;-43
2023/06/11 14:16:11;;;;;;;5.03;2.45;;;31.90;1.00;;;;;;20667053;28;20037;-43
2023/06/11 14:26:32;;;;;;;3.88;1.98;;;32.00;1.00;;;;;;20656506;28;20048;-43
2023/06/11 14:36:54;;;;;;;3.30;2.28;;;32.00;1.00;;;;;;20651146;28;20085;-43
2023/06/11 14:47:15;;;;;;;3.15;2.60;;;31.90;1.00;;;;;;20646288;28;20812;-43
2023/06/11 14:57:37;;;;;;;4.03;2.78;;;31.70;1.00;;;;;;20648376;28;20073;-43
2023/06/11 15:07:58;;;;;;;3.78;2.80;;;31.80;1.00;;;;;;20650452;28;20033;-43
2023/06/11 15:18:20;;;;;;;3.47;2.80;;;31.60;1.00;;;;;;20665522;28;20037;-43
2023/06/11 15:28:41;;;;;;;4.13;2.70;;;31.50;1.00;;;;;;20656292;28;20038;-43
2023/06/11 15:39:02;;;;;;;6.60;3.20;;;31.50;1.00;;;;;;20639203;28;20537;-43
2023/06/11 15:49:24;;;;;;;3.53;2.95;;;31.40;1.00;;;;;;20651242;28;20080;-43
2023/06/11 15:59:45;;;;;;;4.40;3.00;;;31.30;1.00;;;;;;20650782;28;20520;-43
2023/06/11 16:10:07;;;;;;;3.45;2.72;;;31.20;1.00;;;;;;20662197;28;20049;-43
2023/06/11 16:20:29;;;;;;;6.80;3.10;;;31.00;1.00;;;;;;20665016;28;20033;-43
2023/06/11 16:30:51;;;;;;;4.90;3.47;;;30.80;1.00;;;;;;20676736;28;20022;-42
2023/06/11 16:41:12;;;;;;;5.28;3.05;;;30.80;1.00;;;;;;20663385;28;20206;-43
2023/06/11 16:51:33;;;;;;;5.10;3.30;;;30.70;1.00;;;;;;20664650;28;20050;-42
2023/06/11 17:01:55;;;;;;;5.97;3.35;;;30.50;1.00;;;;;;20651323;28;20119;-43
2023/06/11 17:12:16;;;;;;;4.15;3.10;;;30.40;1.00;;;;;;20654345;28;20065;-43
2023/06/11 17:22:37;;;;;;;4.47;3.15;;;30.30;1.00;;;;;;20646047;28;20046;-43
2023/06/11 17:32:59;;;;;;;5.07;3.05;;;30.20;1.00;;;;;;20654362;28;20156;-43
2023/06/11 17:43:21;;;;;;;5.65;3.50;;;30.10;1.00;;;;;;20640270;28;20050;-43
2023/06/11 17:53:42;;;;;;;4.85;3.40;;;30.00;1.00;;;;;;20646584;28;20688;-42
2023/06/11 18:04:04;;;;;;;5.63;3.60;;;29.80;1.00;;;;;;20641238;28;20049;-43
2023/06/11 18:14:26;;;;;;;4.80;3.63;;;29.70;1.00;;;;;;20652990;28;20418;-43
2023/06/11 18:24:47;;;;;;;5.38;3.70;;;29.60;1.00;;;;;;20661068;28;20072;-43
2023/06/11 18:35:09;;;;;;;3.88;3.35;;;29.40;1.00;;;;;;20651811;28;20046;-43
2023/06/11 18:45:31;;;;;;;4.97;3.67;;;29.20;1.00;;;;;;20653925;28;20038;-43
2023/06/11 18:55:52;;;;;;;5.57;3.85;;;29.00;1.00;;;;;;20649465;28;20045;-43
2023/06/11 19:06:15;;;;;;;6.18;3.70;;;28.80;1.00;;;;;;20654819;28;20042;-43
2023/06/11 19:16:37;;;;;;;6.30;3.95;;;28.60;1.00;;;;;;20647254;28;20065;-43
2023/06/11 19:26:58;;;;;;;5.43;4.05;;;28.40;1.00;;;;;;20614603;28;20707;-43
2023/06/11 19:37:20;;;;;;;4.70;3.90;;;28.20;1.00;;;;;;20640467;28;20082;-43
2023/06/11 19:47:41;;;;;;;6.30;3.95;;;28.10;1.00;;;;;;20616828;28;20125;-43
2023/06/11 19:58:03;;;;;;;7.25;4.05;;;27.80;1.00;;;;;;20652071;28;20045;-42
2023/06/11 20:08:24;;;;;;;7.25;4.50;;;27.70;1.00;;;;;;20641746;28;20034;-43
2023/06/11 20:18:45;;;;;;;6.80;4.55;;;27.40;1.00;;;;;;20648604;28;20038;-43
2023/06/11 20:29:07;;;;;;;4.97;3.60;;;27.20;1.00;;;;;;20649797;28;20085;-42
2023/06/11 20:39:28;;;;;;;6.28;3.90;;;26.90;1.00;;;;;;20675012;28;20243;-43
2023/06/11 20:49:51;;;;;;;6.47;4.07;;;26.70;1.00;;;;;;20670561;28;20030;-43
2023/06/11 21:00:13;;;;;;;5.03;3.88;;;26.60;1.00;;;;;;20667290;28;20151;-43
2023/06/11 21:10:34;;;;;;;4.97;3.65;;;26.30;1.00;;;;;;20674661;28;20046;-43
2023/06/11 21:20:56;;;;;;;7.10;3.78;;;26.00;1.00;;;;;;20679407;28;20057;-43
2023/06/11 21:31:17;;;;;;;6.32;3.65;;;25.70;1.00;;;;;;20676458;28;20751;-42
2023/06/11 21:41:38;;;;;;;6.75;3.97;;;25.50;1.00;;;;;;20671506;28;20109;-43
2023/06/11 21:52:01;;;;;;;6.60;3.40;;;25.30;1.00;;;;;;20669575;28;20030;-43
2023/06/11 22:02:23;;;;;;;6.07;3.58;;;25.10;1.00;;;;;;20660567;28;20136;-43
2023/06/11 22:12:44;;;;;;;4.88;3.63;;;24.90;1.00;;;;;;20669944;28;20042;-43
2023/06/11 22:23:06;;;;;;;5.47;3.47;;;24.90;1.00;;;;;;20672313;28;20065;-43
2023/06/11 22:33:27;;;;;;;5.30;3.42;;;24.70;1.00;;;;;;20669915;28;20053;-42
2023/06/11 22:43:48;;;;;;;5.93;3.08;;;24.70;1.00;;;;;;20655658;28;20033;-42
2023/06/11 22:54:10;;;;;;;7.55;3.35;;;24.60;1.00;;;;;;20666748;28;20046;-42
2023/06/11 23:04:34;;;;;;;4.78;3.30;;;24.40;1.00;;;;;;20660503;28;20096;-42
2023/06/11 23:14:56;;;;;;;6.70;3.13;;;24.30;1.00;;;;;;20671529;28;20265;-43
2023/06/11 23:25:17;;;;;;;4.93;2.83;;;24.10;1.00;;;;;;20667319;28;20037;-43
2023/06/11 23:35:39;;;;;;;5.13;2.80;;;23.90;1.00;;;;;;20663019;28;20105;-42
2023/06/11 23:46:00;;;;;;;4.13;2.95;;;23.70;1.00;;;;;;20674190;28;20413;-43
2023/06/11 23:56:22;;;;;;;4.88;2.72;;;23.60;1.00;;;;;;20677221;28;20117;-43
